Time,TemperatureF,DewpointF,PressureIn,WindDirection,WindDirectionDegrees,WindSpeedMPH,WindSpeedGustMPH,Humidity,HourlyPrecipIn,Conditions,Clouds,dailyrainin,SoftwareType,DateUTC
2013-05-05 00:06:00,57.7,52.0,29.92,West,279,0.0,-999.0,80,-99.99,,,0.00,weatherlink.com 1.10,2013-05-05 05:06:00,
2013-05-05 00:21:00,57.4,52.0,29.91,West,279,0.0,-999.0,82,-99.99,,,0.00,weatherlink.com 1.10,2013-05-05 05:21:00,
2013-05-05 00:36:00,57.1,52.0,29.92,West,279,0.0,-999.0,84,-99.99,,,0.00,weatherlink.com 1.10,2013-05-05 05:36:00,
2013-05-05 00:51:00,56.9,52.0,29.92,WNW,294,0.0,-999.0,84,-99.99,,,0.00,weatherlink.com 1.10,2013-05-05 05:51:00,
2013-05-05 01:06:00,56.8,51.0,29.92,WNW,294,0.0,-999.0,82,-99.99,,,0.00,weatherlink.com 1.10,2013-05-05 06:06:00,
2013-05-05 01:21:00,56.6,51.0,29.92,WNW,294,0.0,-999.0,82,-99.99,,,0.00,weatherlink.com 1.10,2013-05-05 06:21:00,
2013-05-05 01:36:00,56.0,51.0,29.91,WNW,294,0.0,-999.0,83,-99.99,,,0.00,weatherlink.com 1.10,2013-05-05 06:36:00,
2013-05-05 01:51:00,55.4,50.0,29.91,WNW,294,0.0,-999.0,81,-99.99,,,0.00,weatherlink.com 1.10,2013-05-05 06:51:00,
2013-05-05 02:06:00,54.6,49.0,29.91,WNW,294,0.0,-999.0,80,-99.99,,,0.00,weatherlink.com 1.10,2013-05-05 07:06:00,
2013-05-05 02:21:00,54.0,48.0,29.91,WNW,294,0.0,-999.0,80,-99.99,,,0.00,weatherlink.com 1.10,2013-05-05 07:21:00,
2013-05-05 02:37:00,53.5,47.0,29.91,WNW,294,0.0,-999.0,79,-99.99,,,0.00,weatherlink.com 1.10,2013-05-05 07:37:00,
2013-05-05 02:52:00,52.8,47.0,29.91,WNW,294,0.0,-999.0,80,-99.99,,,0.00,weatherlink.com 1.10,2013-05-05 07:52:00,
2013-05-05 03:07:00,52.2,46.0,29.91,WNW,294,0.0,-999.0,80,-99.99,,,0.00,weatherlink.com 1.10,2013-05-05 08:07:00,
2013-05-05 03:22:00,51.6,46.0,29.91,WNW,294,0.0,-999.0,81,-99.99,,,0.00,weatherlink.com 1.10,2013-05-05 08:22:00,
2013-05-05 03:37:00,51.0,46.0,29.91,WNW,294,0.0,-999.0,83,-99.99,,,0.00,weatherlink.com 1.10,2013-05-05 08:37:00,
2013-05-05 03:52:00,50.3,46.0,29.91,WNW,294,0.0,-999.0,84,-99.99,,,0.00,weatherlink.com 1.10,2013-05-05 08:52:00,
2013-05-05 04:07:00,49.7,46.0,29.91,WNW,294,0.0,-999.0,86,-99.99,,,0.00,weatherlink.com 1.10,2013-05-05 09:07:00,
2013-05-05 04:22:00,49.1,45.0,29.91,WNW,294,0.0,-999.0,86,-99.99,,,0.00,weatherlink.com 1.10,2013-05-05 09:22:00,
2013-05-05 04:37:00,48.6,45.0,29.92,WNW,294,0.0,-999.0,87,-99.99,,,0.00,weatherlink.com 1.10,2013-05-05 09:37:00,
2013-05-05 04:52:00,48.2,45.0,29.92,WNW,294,0.0,-999.0,88,-99.99,,,0.00,weatherlink.com 1.10,2013-05-05 09:52:00,
2013-05-05 05:07:00,47.9,45.0,29.92,WNW,294,0.0,-999.0,88,-99.99,,,0.00,weatherlink.com 1.10,2013-05-05 10:07:00,
2013-05-05 05:22:00,47.6,44.0,29.93,WNW,294,0.0,-999.0,88,-99.99,,,0.00,weatherlink.com 1.10,2013-05-05 10:22:00,
2013-05-05 05:37:00,47.6,45.0,29.94,NW,304,0.0,-999.0,89,-99.99,,,0.00,weatherlink.com 1.10,2013-05-05 10:37:00,
2013-05-05 05:52:00,47.8,45.0,29.94,NW,304,1.0,-999.0,89,-99.99,,,0.00,weatherlink.com 1.10,2013-05-05 10:52:00,
2013-05-05 06:07:00,48.0,45.0,29.95,WNW,300,0.0,-999.0,88,-99.99,,,0.00,weatherlink.com 1.10,2013-05-05 11:07:00,
2013-05-05 06:22:00,48.0,45.0,29.96,WNW,298,0.0,-999.0,88,-99.99,,,0.00,weatherlink.com 1.10,2013-05-05 11:22:00,
2013-05-05 06:37:00,48.1,45.0,29.96,NW,311,0.0,-999.0,88,-99.99,,,0.00,weatherlink.com 1.10,2013-05-05 11:37:00,
2013-05-05 06:52:00,48.2,45.0,29.97,WNW,294,2.0,-999.0,87,-99.99,,,0.00,weatherlink.com 1.10,2013-05-05 11:52:00,
2013-05-05 07:07:00,48.6,45.0,29.98,NW,313,0.0,-999.0,87,-99.99,,,0.00,weatherlink.com 1.10,2013-05-05 12:07:00,
2013-05-05 07:22:00,49.2,45.0,29.98,NNW,337,0.0,-999.0,86,-99.99,,,0.00,weatherlink.com 1.10,2013-05-05 12:22:00,
2013-05-05 07:37:00,49.9,46.0,29.98,WNW,290,3.0,-999.0,85,-99.99,,,0.00,weatherlink.com 1.10,2013-05-05 12:37:00,
2013-05-05 07:52:00,50.3,45.0,29.99,NW,321,1.0,-999.0,82,-99.99,,,0.00,weatherlink.com 1.10,2013-05-05 12:52:00,
2013-05-05 08:07:00,51.2,46.0,30.00,West,274,5.0,-999.0,81,-99.99,,,0.00,weatherlink.com 1.10,2013-05-05 13:07:00,
2013-05-05 08:22:00,51.5,44.0,30.00,West,281,3.0,-999.0,76,-99.99,,,0.00,weatherlink.com 1.10,2013-05-05 13:22:00,
2013-05-05 08:37:00,52.4,45.0,30.00,North,5,3.0,-999.0,75,-99.99,,,0.00,weatherlink.com 1.10,2013-05-05 13:37:00,
2013-05-05 08:52:00,53.7,45.0,30.00,NW,324,8.0,-999.0,72,-99.99,,,0.00,weatherlink.com 1.10,2013-05-05 13:52:00,
2013-05-05 09:07:00,54.3,45.0,30.00,NW,319,2.0,-999.0,70,-99.99,,,0.00,weatherlink.com 1.10,2013-05-05 14:07:00,
2013-05-05 09:22:00,55.2,45.0,30.01,NNE,14,3.0,-999.0,68,-99.99,,,0.00,weatherlink.com 1.10,2013-05-05 14:22:00,
2013-05-05 09:37:00,56.1,46.0,30.01,WSW,242,4.0,-999.0,68,-99.99,,,0.00,weatherlink.com 1.10,2013-05-05 14:37:00,
2013-05-05 09:52:00,55.6,44.0,30.01,NW,317,8.0,-999.0,66,-99.99,,,0.00,weatherlink.com 1.10,2013-05-05 14:52:00,
2013-05-05 10:08:00,56.6,46.0,30.02,WNW,298,4.0,-999.0,69,-99.99,,,0.00,weatherlink.com 1.10,2013-05-05 15:08:00,
2013-05-05 10:23:00,58.9,46.0,30.02,NE,51,3.0,-999.0,63,-99.99,,,0.00,weatherlink.com 1.10,2013-05-05 15:23:00,
2013-05-05 10:38:00,58.3,46.0,30.02,NNW,337,5.0,-999.0,64,-99.99,,,0.00,weatherlink.com 1.10,2013-05-05 15:38:00,
2013-05-05 10:53:00,58.8,45.0,30.02,WNW,300,5.0,-999.0,60,-99.99,,,0.00,weatherlink.com 1.10,2013-05-05 15:53:00,
2013-05-05 11:08:00,60.0,45.0,30.03,WSW,257,3.0,-999.0,58,-99.99,,,0.00,weatherlink.com 1.10,2013-05-05 16:08:00,
2013-05-05 11:23:00,59.0,45.0,30.03,NNW,340,8.0,-999.0,60,-99.99,,,0.00,weatherlink.com 1.10,2013-05-05 16:23:00,
2013-05-05 11:38:00,59.7,45.0,30.03,NE,44,1.0,-999.0,59,-99.99,,,0.00,weatherlink.com 1.10,2013-05-05 16:38:00,
2013-05-05 11:53:00,60.5,45.0,30.03,SW,221,5.0,-999.0,58,-99.99,,,0.00,weatherlink.com 1.10,2013-05-05 16:53:00,
2013-05-05 12:08:00,60.9,44.0,30.03,North,11,4.0,-999.0,54,-99.99,,,0.00,weatherlink.com 1.10,2013-05-05 17:08:00,
2013-05-05 12:23:00,62.1,44.0,30.02,NNW,347,2.0,-999.0,52,-99.99,,,0.00,weatherlink.com 1.10,2013-05-05 17:23:00,
2013-05-05 12:38:00,61.1,45.0,30.03,WNW,296,3.0,-999.0,55,-99.99,,,0.00,weatherlink.com 1.10,2013-05-05 17:38:00,
2013-05-05 12:53:00,61.8,47.0,30.02,WSW,246,1.0,-999.0,58,-99.99,,,0.00,weatherlink.com 1.10,2013-05-05 17:53:00,
2013-05-05 13:08:00,62.4,46.0,30.02,North,355,5.0,-999.0,56,-99.99,,,0.00,weatherlink.com 1.10,2013-05-05 18:08:00,
2013-05-05 13:23:00,63.5,45.0,30.01,North,360,6.0,-999.0,52,-99.99,,,0.00,weatherlink.com 1.10,2013-05-05 18:23:00,
2013-05-05 13:38:00,64.1,46.0,30.01,SW,216,2.0,-999.0,53,-99.99,,,0.00,weatherlink.com 1.10,2013-05-05 18:38:00,
2013-05-05 13:53:00,64.7,46.0,30.01,WNW,298,7.0,-999.0,51,-99.99,,,0.00,weatherlink.com 1.10,2013-05-05 18:53:00,
2013-05-05 14:08:00,65.2,47.0,30.01,NW,321,4.0,-999.0,53,-99.99,,,0.00,weatherlink.com 1.10,2013-05-05 19:08:00,
2013-05-05 14:23:00,64.2,47.0,30.00,WNW,284,2.0,-999.0,54,-99.99,,,0.00,weatherlink.com 1.10,2013-05-05 19:23:00,
2013-05-05 14:38:00,65.1,46.0,30.00,NW,312,1.0,-999.0,51,-99.99,,,0.00,weatherlink.com 1.10,2013-05-05 19:38:00,
2013-05-05 14:53:00,64.5,47.0,30.00,West,267,7.0,-999.0,53,-99.99,,,0.00,weatherlink.com 1.10,2013-05-05 19:53:00,
2013-05-05 15:08:00,65.8,46.0,29.99,NNW,338,5.0,-999.0,50,-99.99,,,0.00,weatherlink.com 1.10,2013-05-05 20:08:00,
2013-05-05 15:23:00,65.9,45.0,29.98,WNW,291,4.0,-999.0,47,-99.99,,,0.00,weatherlink.com 1.10,2013-05-05 20:23:00,
2013-05-05 15:38:00,65.7,45.0,29.98,NNW,331,4.0,-999.0,48,-99.99,,,0.00,weatherlink.com 1.10,2013-05-05 20:38:00,
2013-05-05 15:53:00,66.4,45.0,29.98,NW,316,4.0,-999.0,47,-99.99,,,0.00,weatherlink.com 1.10,2013-05-05 20:53:00,
2013-05-05 16:08:00,66.5,47.0,29.98,WNW,291,5.0,-999.0,49,-99.99,,,0.00,weatherlink.com 1.10,2013-05-05 21:08:00,
2013-05-05 16:23:00,66.2,45.0,29.97,WNW,282,0.0,-999.0,47,-99.99,,,0.00,weatherlink.com 1.10,2013-05-05 21:23:00,
2013-05-05 16:38:00,65.4,45.0,29.98,WNW,288,8.0,-999.0,48,-99.99,,,0.00,weatherlink.com 1.10,2013-05-05 21:38:00,
2013-05-05 16:53:00,64.9,44.0,29.97,NW,321,4.0,-999.0,47,-99.99,,,0.00,weatherlink.com 1.10,2013-05-05 21:53:00,
2013-05-05 17:08:00,64.8,44.0,29.98,SW,231,0.0,-999.0,48,-99.99,,,0.00,weatherlink.com 1.10,2013-05-05 22:08:00,
2013-05-05 17:23:00,64.0,45.0,29.98,NW,321,0.0,-999.0,50,-99.99,,,0.00,weatherlink.com 1.10,2013-05-05 22:23:00,
2013-05-05 17:38:00,64.1,45.0,29.98,WNW,292,4.0,-999.0,50,-99.99,,,0.00,weatherlink.com 1.10,2013-05-05 22:38:00,
2013-05-05 17:53:00,63.9,46.0,29.98,NNE,28,6.0,-999.0,52,-99.99,,,0.00,weatherlink.com 1.10,2013-05-05 22:53:00,
2013-05-05 18:08:00,62.6,45.0,29.99,NNE,32,0.0,-999.0,53,-99.99,,,0.00,weatherlink.com 1.10,2013-05-05 23:08:00,
2013-05-05 18:23:00,62.1,46.0,29.99,South,174,0.0,-999.0,56,-99.99,,,0.00,weatherlink.com 1.10,2013-05-05 23:23:00,
2013-05-05 18:38:00,61.6,46.0,30.00,East,89,0.0,-999.0,57,-99.99,,,0.00,weatherlink.com 1.10,2013-05-05 23:38:00,
2013-05-05 18:53:00,61.0,45.0,30.00,WNW,303,0.0,-999.0,57,-99.99,,,0.00,weatherlink.com 1.10,2013-05-05 23:53:00,
2013-05-05 19:08:00,60.4,46.0,30.00,West,261,0.0,-999.0,60,-99.99,,,0.00,weatherlink.com 1.10,2013-05-06 00:08:00,
2013-05-05 19:38:00,59.3,46.0,30.01,West,261,0.0,-999.0,61,-99.99,,,0.00,weatherlink.com 1.10,2013-05-06 00:38:00,
2013-05-05 19:53:00,58.6,46.0,30.01,West,261,0.0,-999.0,64,-99.99,,,0.00,weatherlink.com 1.10,2013-05-06 00:53:00,
2013-05-05 20:08:00,57.6,47.0,30.02,West,261,0.0,-999.0,67,-99.99,,,0.00,weatherlink.com 1.10,2013-05-06 01:08:00,
2013-05-05 20:23:00,56.6,47.0,30.02,West,261,0.0,-999.0,71,-99.99,,,0.00,weatherlink.com 1.10,2013-05-06 01:23:00,
2013-05-05 20:38:00,55.3,48.0,30.02,West,261,0.0,-999.0,75,-99.99,,,0.00,weatherlink.com 1.10,2013-05-06 01:38:00,
2013-05-05 20:53:00,54.2,47.0,30.03,West,261,0.0,-999.0,76,-99.99,,,0.00,weatherlink.com 1.10,2013-05-06 01:53:00,
2013-05-05 21:08:00,53.1,46.0,30.03,West,261,0.0,-999.0,77,-99.99,,,0.00,weatherlink.com 1.10,2013-05-06 02:08:00,
2013-05-05 21:23:00,52.1,47.0,30.04,West,261,0.0,-999.0,82,-99.99,,,0.00,weatherlink.com 1.10,2013-05-06 02:23:00,
2013-05-05 21:38:00,51.3,46.0,30.04,West,261,0.0,-999.0,81,-99.99,,,0.00,weatherlink.com 1.10,2013-05-06 02:38:00,
2013-05-05 21:53:00,50.6,45.0,30.05,West,261,0.0,-999.0,82,-99.99,,,0.00,weatherlink.com 1.10,2013-05-06 02:53:00,
2013-05-05 22:08:00,50.1,46.0,30.05,West,261,0.0,-999.0,86,-99.99,,,0.00,weatherlink.com 1.10,2013-05-06 03:08:00,
2013-05-05 22:23:00,49.4,45.0,30.05,West,261,0.0,-999.0,85,-99.99,,,0.00,weatherlink.com 1.10,2013-05-06 03:23:00,
2013-05-05 22:38:00,48.9,45.0,30.06,West,261,0.0,-999.0,85,-99.99,,,0.00,weatherlink.com 1.10,2013-05-06 03:38:00,
2013-05-05 22:53:00,48.4,44.0,30.06,West,261,0.0,-999.0,85,-99.99,,,0.00,weatherlink.com 1.10,2013-05-06 03:53:00,
2013-05-05 23:08:00,48.0,44.0,30.06,West,261,0.0,-999.0,87,-99.99,,,0.00,weatherlink.com 1.10,2013-05-06 04:08:00,
2013-05-05 23:24:00,47.7,44.0,30.06,West,261,0.0,-999.0,88,-99.99,,,0.00,weatherlink.com 1.10,2013-05-06 04:24:00,
2013-05-05 23:39:00,47.3,44.0,30.06,West,261,0.0,-999.0,89,-99.99,,,0.00,weatherlink.com 1.10,2013-05-06 04:39:00,
2013-05-05 23:54:00,47.0,44.0,30.06,West,261,0.0,-999.0,89,-99.99,,,0.00,weatherlink.com 1.10,2013-05-06 04:54:00,